createdAt,value
2019-01-13T00:01:58.212Z,49.37
2019-01-13T00:04:27.308Z,47.33
2019-01-13T00:06:56.456Z,54.23
2019-01-13T00:09:25.681Z,42.67
2019-01-13T00:11:54.739Z,43.53
2019-01-13T00:14:24.239Z,42.83
2019-01-13T00:16:53.510Z,47.50
2019-01-13T00:19:23.644Z,46.97
2019-01-13T00:21:53.812Z,45.30
2019-01-13T00:24:23.716Z,51.50
2019-01-13T00:26:53.716Z,60.43
2019-01-13T00:29:23.872Z,55.27
2019-01-13T00:31:53.763Z,60.23
2019-01-13T00:34:24.453Z,70.93
2019-01-13T00:36:53.944Z,66.43
2019-01-13T00:39:24.040Z,61.33
2019-01-13T00:41:54.176Z,57.07
2019-01-13T00:44:23.964Z,48.63
2019-01-13T00:46:54.177Z,39.83
2019-01-13T00:49:24.595Z,40.13
2019-01-13T00:51:54.154Z,41.85
2019-01-13T00:54:24.200Z,33.50
2019-01-13T00:56:54.176Z,28.73
2019-01-13T00:59:24.210Z,31.63
2019-01-13T01:01:55.018Z,39.60
2019-01-13T01:04:24.415Z,27.90
2019-01-13T01:06:54.461Z,29.67
2019-01-13T01:09:24.656Z,32.60
2019-01-13T01:11:54.805Z,31.07
2019-01-13T01:14:24.931Z,41.60
2019-01-13T01:16:54.677Z,29.57
2019-01-13T01:19:24.703Z,35.43
2019-01-13T01:21:54.754Z,33.97
2019-01-13T01:24:24.748Z,36.70
2019-01-13T01:26:55.036Z,34.73
2019-01-13T01:29:25.196Z,28.25
2019-01-13T01:31:54.833Z,32.30
2019-01-13T01:34:24.901Z,37.07
2019-01-13T01:36:54.956Z,31.33
2019-01-13T01:39:24.990Z,33.07
2019-01-13T01:41:55.064Z,32.70
2019-01-13T01:44:25.071Z,30.47
2019-01-13T01:46:55.086Z,35.37
2019-01-13T01:49:25.397Z,29.13
2019-01-13T01:51:56.525Z,37.97
2019-01-13T01:54:25.584Z,36.93
2019-01-13T01:56:55.282Z,36.87
2019-01-13T01:59:25.652Z,40.80
2019-01-13T02:01:55.785Z,34.37
2019-01-13T02:04:25.602Z,35.43
2019-01-13T02:06:55.663Z,41.53
2019-01-13T02:09:25.358Z,33.73
2019-01-13T02:11:55.801Z,37.47
2019-01-13T02:14:25.736Z,31.43
2019-01-13T02:16:55.618Z,37.13
2019-01-13T02:19:26.028Z,42.30
2019-01-13T02:21:55.974Z,41.53
2019-01-13T02:24:25.712Z,39.73
2019-01-13T02:26:55.743Z,47.30
2019-01-13T02:29:25.730Z,46.73
2019-01-13T02:31:56.120Z,39.43
2019-01-13T02:34:25.967Z,47.33
2019-01-13T02:36:56.340Z,40.40
2019-01-13T02:39:26.017Z,39.63
2019-01-13T02:41:56.055Z,42.33
2019-01-13T02:44:26.395Z,38.07
2019-01-13T02:46:56.321Z,45.43
2019-01-13T02:49:26.731Z,48.90
2019-01-13T02:51:57.372Z,50.10
2019-01-13T02:54:26.732Z,42.33
2019-01-13T02:56:56.520Z,42.13
2019-01-13T02:59:26.611Z,40.20
2019-01-13T03:01:56.380Z,49.83
2019-01-13T03:04:26.656Z,40.77
2019-01-13T03:06:56.422Z,35.77
2019-01-13T03:09:26.432Z,40.33
2019-01-13T03:11:56.842Z,40.77
2019-01-13T03:14:26.660Z,34.33
2019-01-13T03:16:56.648Z,40.20
2019-01-13T03:19:26.774Z,34.00
2019-01-13T03:21:57.069Z,35.03
2019-01-13T03:24:26.798Z,39.30
2019-01-13T03:26:56.828Z,27.13
2019-01-13T03:29:26.880Z,31.63
2019-01-13T03:31:57.881Z,34.23
2019-01-13T03:34:27.065Z,28.43
2019-01-13T03:36:57.276Z,30.32
2019-01-13T03:39:26.974Z,29.45
2019-01-13T03:41:57.515Z,28.13
2019-01-13T03:44:27.111Z,32.27
2019-01-13T03:46:57.268Z,34.93
2019-01-13T03:49:27.361Z,32.50
2019-01-13T03:51:57.330Z,29.63
2019-01-13T03:54:27.390Z,33.17
2019-01-13T03:56:57.280Z,28.65
2019-01-13T03:59:27.538Z,29.13
2019-01-13T04:01:57.289Z,28.10
2019-01-13T04:04:27.952Z,27.00
2019-01-13T04:06:57.802Z,29.37
2019-01-13T04:09:27.561Z,31.13
2019-01-13T04:11:57.555Z,25.93
2019-01-13T04:14:27.564Z,26.30
2019-01-13T04:16:58.435Z,25.40
2019-01-13T04:19:27.566Z,28.47
2019-01-13T04:21:57.618Z,27.70
2019-01-13T04:24:27.239Z,25.80
2019-01-13T04:26:56.634Z,27.40
2019-01-13T04:29:26.243Z,29.33
2019-01-13T04:31:55.356Z,23.57
2019-01-13T04:34:24.454Z,22.87
2019-01-13T04:36:53.593Z,21.50
2019-01-13T04:39:22.675Z,19.83
2019-01-13T04:41:51.856Z,21.27
2019-01-13T04:44:20.980Z,21.63
2019-01-13T04:46:50.077Z,17.67
2019-01-13T04:49:19.143Z,18.53
2019-01-13T04:51:48.245Z,20.93
2019-01-13T04:54:17.361Z,15.87
2019-01-13T04:56:46.854Z,17.17
2019-01-13T04:59:16.223Z,18.30
2019-01-13T05:01:46.257Z,15.50
2019-01-13T05:04:15.607Z,17.00
2019-01-13T05:06:45.491Z,17.13
2019-01-13T05:09:14.928Z,18.27
2019-01-13T05:11:44.415Z,18.60
2019-01-13T05:14:13.740Z,18.03
2019-01-13T05:16:42.953Z,16.57
2019-01-13T05:19:12.090Z,18.90
2019-01-13T05:21:41.432Z,18.20
2019-01-13T05:24:10.564Z,18.70
2019-01-13T05:26:39.682Z,22.40
2019-01-13T05:29:08.768Z,19.50
2019-01-13T05:31:41.971Z,21.83
2019-01-13T05:34:09.580Z,21.53
2019-01-13T05:36:38.822Z,22.23
2019-01-13T05:39:08.382Z,24.90
2019-01-13T05:41:37.592Z,24.75
2019-01-13T05:44:06.716Z,26.83
2019-01-13T05:46:35.912Z,24.20
2019-01-13T05:49:05.059Z,26.20
2019-01-13T05:51:34.134Z,27.17
2019-01-13T05:54:03.313Z,26.07
2019-01-13T05:56:32.942Z,26.53
2019-01-13T05:59:03.501Z,27.60
2019-01-13T06:01:34.004Z,26.40
2019-01-13T06:04:03.805Z,27.23
2019-01-13T06:06:32.987Z,26.27
2019-01-13T06:09:03.069Z,28.70
2019-01-13T06:11:33.218Z,26.23
2019-01-13T06:14:03.208Z,24.93
2019-01-13T06:16:32.951Z,25.63
2019-01-13T06:19:02.935Z,23.17
2019-01-13T06:21:33.217Z,27.90
2019-01-13T06:24:02.983Z,24.30
2019-01-13T06:26:33.283Z,23.60
2019-01-13T06:29:02.961Z,24.40
2019-01-13T06:31:33.323Z,25.47
2019-01-13T06:34:03.354Z,25.30
2019-01-13T06:36:33.256Z,23.17
2019-01-13T06:39:03.212Z,24.73
2019-01-13T06:41:33.888Z,21.37
2019-01-13T06:44:03.004Z,26.00
2019-01-13T06:46:33.063Z,19.80
2019-01-13T06:49:03.368Z,21.03
2019-01-13T06:51:33.404Z,18.60
2019-01-13T06:54:03.076Z,18.23
2019-01-13T06:56:32.923Z,21.27
2019-01-13T06:59:02.951Z,17.27
2019-01-13T07:01:33.328Z,22.83
2019-01-13T07:04:03.344Z,20.00
2019-01-13T07:06:33.364Z,18.87
2019-01-13T07:09:04.308Z,17.90
2019-01-13T07:11:33.463Z,21.40
2019-01-13T07:14:03.312Z,19.03
2019-01-13T07:16:32.972Z,16.97
2019-01-13T07:19:03.007Z,15.27
2019-01-13T07:21:34.840Z,12.80
2019-01-13T07:24:04.003Z,14.37
2019-01-13T07:26:33.092Z,13.13
2019-01-13T07:29:02.968Z,11.90
2019-01-13T07:31:32.940Z,17.20
2019-01-13T07:34:03.388Z,12.77
2019-01-13T07:36:33.012Z,11.30
2019-01-13T07:39:04.436Z,11.63
2019-01-13T07:41:33.536Z,12.37
2019-01-13T07:44:03.024Z,11.37
2019-01-13T07:46:33.025Z,13.17
2019-01-13T07:49:04.012Z,11.83
2019-01-13T07:51:34.589Z,10.40
2019-01-13T07:54:04.008Z,12.00
2019-01-13T07:56:33.416Z,10.90
2019-01-13T07:59:02.883Z,10.00
2019-01-13T08:01:33.252Z,15.53
2019-01-13T08:04:03.080Z,10.07
2019-01-13T08:06:32.936Z,10.63
2019-01-13T08:09:03.393Z,10.97
2019-01-13T08:11:33.169Z,10.83
2019-01-13T08:14:03.016Z,9.90
2019-01-13T08:16:33.364Z,10.83
2019-01-13T08:19:03.361Z,11.43
2019-01-13T08:21:33.021Z,11.90
2019-01-13T08:24:02.993Z,12.13
2019-01-13T08:26:34.016Z,11.67
2019-01-13T08:29:03.059Z,11.57
2019-01-13T08:31:33.133Z,13.17
2019-01-13T08:34:03.513Z,12.70
2019-01-13T08:36:33.256Z,15.83
2019-01-13T08:39:04.524Z,13.83
2019-01-13T08:41:33.864Z,17.77
2019-01-13T08:44:03.319Z,15.30
2019-01-13T08:46:33.296Z,18.00
2019-01-13T08:49:02.484Z,14.60
2019-01-13T08:51:31.871Z,18.43
2019-01-13T08:54:01.361Z,15.47
2019-01-13T08:56:30.761Z,19.00
2019-01-13T08:58:59.922Z,27.23
2019-01-13T09:01:29.281Z,19.63
2019-01-13T09:03:58.718Z,18.37
2019-01-13T09:06:27.776Z,21.40
2019-01-13T09:08:56.880Z,18.50
2019-01-13T09:11:26.385Z,23.77
2019-01-13T09:13:55.496Z,19.17
2019-01-13T09:16:25.276Z,26.53
2019-01-13T09:18:54.631Z,20.67
2019-01-13T09:21:23.848Z,20.47
2019-01-13T09:23:53.644Z,21.50
2019-01-13T09:26:22.767Z,22.53
2019-01-13T09:28:51.860Z,24.20
2019-01-13T09:31:20.998Z,30.30
2019-01-13T09:33:50.485Z,24.70
2019-01-13T09:36:20.018Z,29.13
2019-01-13T09:38:49.105Z,30.43
2019-01-13T09:41:18.177Z,25.70
2019-01-13T09:43:47.280Z,27.10
2019-01-13T09:46:16.420Z,28.47
2019-01-13T09:48:45.511Z,38.13
2019-01-13T09:51:14.720Z,39.50
2019-01-13T09:53:43.779Z,32.77
2019-01-13T09:56:13.292Z,34.73
2019-01-13T09:58:42.601Z,30.07
2019-01-13T10:01:12.363Z,37.10
2019-01-13T10:03:41.796Z,40.37
2019-01-13T10:06:10.988Z,37.67
2019-01-13T10:08:40.048Z,48.17
2019-01-13T10:11:10.384Z,41.60
2019-01-13T10:13:39.842Z,35.90
2019-01-13T10:16:09.309Z,32.03
2019-01-13T10:18:38.710Z,35.80
2019-01-13T10:21:07.829Z,34.03
2019-01-13T10:23:36.999Z,36.50
2019-01-13T10:26:06.123Z,40.93
2019-01-13T10:28:35.364Z,40.90
2019-01-13T10:31:05.730Z,27.58
2019-01-13T10:33:35.740Z,36.83
2019-01-13T10:36:05.908Z,34.35
2019-01-13T10:38:35.727Z,36.20
2019-01-13T10:41:05.719Z,37.90
2019-01-13T10:43:36.690Z,33.43
2019-01-13T10:46:06.016Z,31.65
2019-01-13T10:48:36.160Z,33.58
2019-01-13T10:51:06.471Z,45.13
2019-01-13T10:53:36.140Z,35.63
2019-01-13T10:56:06.131Z,37.20
2019-01-13T10:58:36.256Z,35.87
2019-01-13T11:01:06.392Z,40.50
2019-01-13T11:03:36.428Z,32.58
2019-01-13T11:06:06.068Z,37.17
2019-01-13T11:08:36.179Z,37.37
2019-01-13T11:11:05.600Z,25.67
2019-01-13T11:13:34.591Z,39.57
2019-01-13T11:16:04.022Z,31.30
2019-01-13T11:18:33.081Z,33.30
2019-01-13T11:21:02.215Z,34.17
2019-01-13T11:23:31.540Z,29.47
2019-01-13T11:26:00.597Z,31.73
2019-01-13T11:28:30.216Z,27.83
2019-01-13T11:30:59.652Z,22.47
2019-01-13T11:33:29.012Z,31.53
2019-01-13T11:35:58.152Z,24.37
2019-01-13T11:38:27.404Z,27.03
2019-01-13T11:40:56.480Z,21.43
2019-01-13T11:43:25.758Z,21.07
2019-01-13T11:45:54.836Z,16.70
2019-01-13T11:48:23.940Z,17.40
2019-01-13T11:50:53.134Z,18.00
2019-01-13T11:53:22.317Z,20.07
2019-01-13T11:55:51.492Z,14.87
2019-01-13T11:58:20.559Z,15.00
2019-01-13T12:00:50.376Z,16.10
2019-01-13T12:03:19.439Z,15.53
2019-01-13T12:05:48.512Z,15.13
2019-01-13T12:08:17.724Z,15.17
2019-01-13T12:10:47.063Z,16.50
2019-01-13T12:13:16.104Z,14.30
2019-01-13T12:15:45.484Z,12.17
2019-01-13T12:18:14.600Z,12.47
2019-01-13T12:20:43.684Z,16.37
2019-01-13T12:23:12.740Z,11.77
2019-01-13T12:25:42.340Z,15.30
2019-01-13T12:28:11.676Z,10.07
2019-01-13T12:30:41.304Z,10.68
2019-01-13T12:33:11.288Z,9.27
2019-01-13T12:35:41.720Z,8.43
2019-01-13T12:38:11.472Z,9.80
2019-01-13T12:40:41.682Z,10.87
2019-01-13T12:43:12.237Z,9.53
2019-01-13T12:45:41.619Z,9.73
2019-01-13T12:48:11.827Z,8.37
2019-01-13T12:50:41.931Z,11.97
2019-01-13T12:53:12.236Z,13.20
2019-01-13T12:55:42.188Z,13.70
2019-01-13T12:58:12.040Z,12.68
2019-01-13T13:00:42.026Z,8.47
2019-01-13T13:03:12.388Z,12.85
2019-01-13T13:05:42.480Z,11.63
2019-01-13T13:08:12.424Z,11.13
2019-01-13T13:10:47.893Z,9.10
2019-01-13T13:13:17.064Z,11.83
2019-01-13T13:15:46.836Z,12.43
2019-01-13T13:18:23.828Z,16.90
2019-01-13T13:20:52.964Z,10.97
2019-01-13T13:23:22.305Z,11.10
2019-01-13T13:25:51.424Z,12.17
2019-01-13T13:28:20.766Z,15.73
2019-01-13T13:30:50.120Z,15.27
2019-01-13T13:33:19.321Z,14.23
2019-01-13T13:35:49.084Z,16.17
2019-01-13T13:38:19.108Z,13.23
2019-01-13T13:40:49.032Z,13.87
2019-01-13T13:43:19.195Z,13.00
2019-01-13T13:45:48.855Z,12.73
2019-01-13T13:48:19.101Z,14.47
2019-01-13T13:50:49.000Z,13.23
2019-01-13T13:53:19.713Z,15.93
2019-01-13T13:55:50.121Z,16.17
2019-01-13T13:58:19.216Z,16.17
2019-01-13T14:00:48.900Z,11.77
2019-01-13T14:03:19.099Z,12.70
2019-01-13T14:05:48.903Z,13.60
2019-01-13T14:08:19.239Z,11.73
2019-01-13T14:10:49.200Z,14.77
2019-01-13T14:13:19.083Z,10.40
2019-01-13T14:15:48.965Z,12.00
2019-01-13T14:18:18.929Z,8.60
2019-01-13T14:20:48.888Z,9.70
2019-01-13T14:23:19.148Z,10.27
2019-01-13T14:25:49.180Z,9.00
2019-01-13T14:28:19.019Z,10.63
2019-01-13T14:30:49.677Z,9.57
2019-01-13T14:33:18.948Z,8.13
2019-01-13T14:35:49.330Z,9.77
2019-01-13T14:38:18.926Z,6.70
2019-01-13T14:40:48.954Z,9.50
2019-01-13T14:43:18.993Z,8.23
2019-01-13T14:45:49.536Z,8.07
2019-01-13T14:48:18.997Z,12.03
2019-01-13T14:50:49.060Z,10.23
2019-01-13T14:53:19.425Z,10.00
2019-01-13T14:55:49.105Z,15.50
2019-01-13T14:58:18.929Z,9.43
2019-01-13T15:00:48.926Z,9.63
2019-01-13T15:03:19.061Z,8.53
2019-01-13T15:05:49.181Z,13.20
2019-01-13T15:08:19.257Z,12.03
2019-01-13T15:10:49.303Z,13.90
2019-01-13T15:13:19.305Z,18.33
2019-01-13T15:15:48.965Z,18.57
2019-01-13T15:18:19.075Z,13.33
2019-01-13T15:20:49.272Z,15.40
2019-01-13T15:23:19.031Z,16.30
2019-01-13T15:25:49.012Z,15.27
2019-01-13T15:28:19.293Z,12.27
2019-01-13T15:30:49.182Z,12.87
2019-01-13T15:33:19.252Z,13.77
2019-01-13T15:35:49.842Z,12.77
2019-01-13T15:38:19.325Z,14.80
2019-01-13T15:40:49.205Z,12.53
2019-01-13T15:43:19.367Z,13.80
2019-01-13T15:45:49.177Z,12.30
2019-01-13T15:48:18.999Z,16.70
2019-01-13T15:50:49.084Z,18.27
2019-01-13T15:53:19.077Z,14.20
2019-01-13T15:55:49.012Z,19.07
2019-01-13T15:58:19.055Z,13.07
2019-01-13T16:00:49.020Z,19.67
2019-01-13T16:03:19.052Z,16.83
2019-01-13T16:05:49.106Z,12.00
2019-01-13T16:08:19.112Z,19.93
2019-01-13T16:10:49.093Z,17.70
2019-01-13T16:13:19.107Z,27.63
2019-01-13T16:15:49.572Z,24.03
2019-01-13T16:18:19.066Z,15.93
2019-01-13T16:20:50.632Z,12.63
2019-01-13T16:23:19.731Z,19.93
2019-01-13T16:25:49.088Z,22.77
2019-01-13T16:28:19.070Z,19.83
2019-01-13T16:30:49.074Z,16.87
2019-01-13T16:33:19.056Z,18.83
2019-01-13T16:35:49.316Z,16.63
2019-01-13T16:38:19.380Z,15.60
2019-01-13T16:40:49.076Z,18.53
2019-01-13T16:43:19.413Z,16.23
2019-01-13T16:45:49.057Z,13.03
2019-01-13T16:48:19.148Z,16.30
2019-01-13T16:50:49.278Z,24.00
2019-01-13T16:53:19.487Z,15.33
2019-01-13T16:55:49.068Z,18.63
2019-01-13T16:58:19.056Z,18.30
2019-01-13T17:00:49.064Z,25.00
2019-01-13T17:03:19.133Z,16.60
2019-01-13T17:05:49.126Z,21.50
2019-01-13T17:08:19.841Z,17.67
2019-01-13T17:10:49.805Z,15.20
2019-01-13T17:13:19.260Z,18.60
2019-01-13T17:15:49.609Z,17.83
2019-01-13T17:18:19.341Z,14.07
2019-01-13T17:20:49.208Z,15.33
2019-01-13T17:23:19.240Z,18.03
2019-01-13T17:25:49.911Z,15.50
2019-01-13T17:28:19.546Z,17.47
2019-01-13T17:30:48.724Z,19.03
2019-01-13T17:33:17.873Z,30.50
2019-01-13T17:35:47.056Z,16.53
2019-01-13T17:38:16.076Z,20.63
2019-01-13T17:40:45.430Z,18.67
2019-01-13T17:43:14.783Z,27.80
2019-01-13T17:45:44.034Z,17.30
2019-01-13T17:48:13.537Z,18.53
2019-01-13T17:50:42.911Z,16.80
2019-01-13T17:53:12.289Z,13.07
2019-01-13T17:55:41.761Z,19.60
2019-01-13T17:58:11.152Z,15.87
2019-01-13T18:00:52.504Z,11.03
2019-01-13T18:03:29.592Z,16.70
2019-01-13T18:05:59.029Z,15.87
2019-01-13T18:08:28.267Z,7.87
2019-01-13T18:10:57.738Z,9.90
2019-01-13T18:13:27.056Z,8.87
2019-01-13T18:15:56.197Z,13.57
2019-01-13T18:18:25.369Z,9.47
2019-01-13T18:20:55.117Z,12.23
2019-01-13T18:23:25.064Z,8.87
2019-01-13T18:25:54.227Z,6.00
2019-01-13T18:28:24.107Z,9.90
2019-01-13T18:30:54.025Z,8.90
2019-01-13T18:33:24.236Z,10.87
2019-01-13T18:35:54.074Z,13.43
2019-01-13T18:38:24.077Z,9.83
2019-01-13T18:40:54.332Z,11.67
2019-01-13T18:43:24.376Z,16.80
2019-01-13T18:45:53.996Z,9.03
2019-01-13T18:48:24.041Z,4.90
2019-01-13T18:50:53.997Z,7.30
2019-01-13T18:53:24.120Z,3.27
2019-01-13T18:55:54.217Z,3.03
2019-01-13T18:58:24.509Z,2.87
2019-01-13T19:00:54.194Z,3.27
2019-01-13T19:03:24.816Z,2.53
2019-01-13T19:05:54.360Z,4.97
2019-01-13T19:08:24.224Z,2.37
2019-01-13T19:11:20.777Z,4.50
2019-01-13T19:14:40.556Z,9.70
2019-01-13T19:17:14.549Z,5.23
2019-01-13T19:20:20.868Z,6.00
2019-01-13T19:22:52.686Z,2.30
2019-01-13T19:25:27.640Z,7.27
2019-01-13T19:27:57.073Z,7.30
2019-01-13T19:30:26.181Z,1.37
2019-01-13T19:32:55.309Z,2.57
2019-01-13T19:35:24.504Z,6.77
2019-01-13T19:37:54.736Z,7.73
2019-01-13T19:40:24.213Z,7.03
2019-01-13T19:42:54.518Z,7.40
2019-01-13T19:45:24.275Z,6.97
2019-01-13T19:47:55.013Z,5.83
2019-01-13T19:50:25.761Z,8.87
2019-01-13T19:52:55.064Z,8.77
2019-01-13T19:55:24.532Z,10.47
2019-01-13T19:57:54.741Z,16.27
2019-01-13T20:00:33.040Z,10.40
2019-01-13T20:03:02.483Z,12.90
2019-01-13T20:05:32.841Z,12.73
2019-01-13T20:08:02.264Z,9.03
2019-01-13T20:10:31.470Z,12.33
2019-01-13T20:13:00.662Z,10.23
2019-01-13T20:15:29.729Z,14.80
2019-01-13T20:17:58.826Z,10.83
2019-01-13T20:20:28.037Z,15.63
2019-01-13T20:22:57.134Z,9.63
2019-01-13T20:25:26.509Z,17.13
2019-01-13T20:27:55.949Z,10.93
2019-01-13T20:30:31.064Z,14.37
2019-01-13T20:33:00.761Z,12.50
2019-01-13T20:35:30.668Z,13.37
2019-01-13T20:38:00.186Z,17.73
2019-01-13T20:40:29.528Z,23.80
2019-01-13T20:42:58.985Z,17.50
2019-01-13T20:45:40.036Z,13.37
2019-01-13T20:48:09.494Z,17.83
2019-01-13T20:50:38.656Z,17.87
2019-01-13T20:53:07.732Z,15.30
2019-01-13T20:55:37.657Z,23.73
2019-01-13T20:58:06.860Z,29.20
2019-01-13T21:00:36.132Z,24.43
2019-01-13T21:03:05.780Z,11.13
2019-01-13T21:05:34.986Z,20.08
2019-01-13T21:08:04.177Z,24.20
2019-01-13T21:10:33.344Z,15.73
2019-01-13T21:13:02.500Z,22.17
2019-01-13T21:15:33.328Z,22.60
2019-01-13T21:18:02.536Z,22.20
2019-01-13T21:20:32.906Z,24.30
2019-01-13T21:23:02.154Z,24.53
2019-01-13T21:25:31.328Z,19.50
2019-01-13T21:28:01.761Z,20.33
2019-01-13T21:30:32.471Z,26.83
2019-01-13T21:33:02.002Z,30.57
2019-01-13T21:35:34.212Z,26.07
2019-01-13T21:38:02.304Z,20.07
2019-01-13T21:40:31.394Z,35.43
2019-01-13T21:43:00.856Z,17.60
2019-01-13T21:45:31.415Z,34.33
2019-01-13T21:48:00.612Z,22.57
2019-01-13T21:50:29.942Z,24.67
2019-01-13T21:52:59.073Z,24.17
2019-01-13T21:55:28.080Z,32.40
2019-01-13T21:57:57.267Z,22.73
2019-01-13T22:00:27.423Z,19.33
2019-01-13T22:02:57.092Z,26.37
2019-01-13T22:05:26.428Z,25.53
2019-01-13T22:07:56.733Z,26.03
2019-01-13T22:10:25.907Z,26.90
2019-01-13T22:12:56.069Z,20.40
2019-01-13T22:15:25.761Z,28.90
2019-01-13T22:17:55.881Z,22.03
2019-01-13T22:20:26.305Z,25.80
2019-01-13T22:22:56.108Z,20.23
2019-01-13T22:25:26.218Z,19.33
2019-01-13T22:27:56.300Z,24.43
2019-01-13T22:30:26.504Z,15.53
2019-01-13T22:32:56.177Z,26.40
2019-01-13T22:35:25.319Z,21.23
2019-01-13T22:37:55.869Z,29.93
2019-01-13T22:40:25.696Z,22.33
2019-01-13T22:42:55.021Z,23.60
2019-01-13T22:45:24.820Z,23.57
2019-01-13T22:47:53.929Z,24.43
2019-01-13T22:50:23.114Z,23.80
2019-01-13T22:52:52.641Z,23.60
2019-01-13T22:55:21.724Z,16.30
2019-01-13T22:57:50.828Z,22.30
2019-01-13T23:00:38.168Z,36.70
2019-01-13T23:03:08.240Z,14.23
2019-01-13T23:05:38.139Z,27.87
2019-01-13T23:08:07.240Z,25.27
2019-01-13T23:10:36.798Z,28.37
2019-01-13T23:13:05.920Z,12.80
2019-01-13T23:15:34.980Z,21.33
2019-01-13T23:18:04.161Z,14.73
2019-01-13T23:20:33.236Z,25.77
2019-01-13T23:23:02.391Z,27.23
2019-01-13T23:25:31.536Z,23.03
2019-01-13T23:28:00.992Z,13.00
2019-01-13T23:30:30.044Z,20.83
2019-01-13T23:32:59.665Z,23.23
2019-01-13T23:35:29.716Z,25.73
2019-01-13T23:37:59.482Z,29.35
2019-01-13T23:40:29.520Z,17.37
2019-01-13T23:42:59.500Z,18.40
2019-01-13T23:45:29.576Z,19.77
2019-01-13T23:47:58.656Z,22.03
2019-01-13T23:50:28.172Z,22.80
2019-01-13T23:52:57.312Z,23.33
2019-01-13T23:55:26.441Z,22.47
2019-01-13T23:57:55.640Z,30.00
